Time;durP1;ratioP1;P1;durP2;ratioP2;P2;SDS_P1;SDS_P2;PMS_P1;PMS_P2;Temp;Humidity;BMP_temperature;BMP_pressure;BME280_temperature;BME280_humidity;BME280_pressure;Samples;Min_cycle;Max_cycle;Signal;HPM_P1;HPM_P2
2023/11/07 00:01:30;;;;;;;17.67;7.32;;;9.20;96.20;;;;;;5022744;28;20121;-73
2023/11/07 00:03:56;;;;;;;11.52;6.25;;;9.20;96.20;;;;;;5021800;28;20554;-72
2023/11/07 00:06:22;;;;;;;12.70;6.55;;;9.20;96.20;;;;;;5021975;28;20045;-73
2023/11/07 00:08:48;;;;;;;15.52;7.30;;;9.20;96.30;;;;;;5021641;28;20060;-74
2023/11/07 00:11:13;;;;;;;15.68;8.13;;;9.20;96.30;;;;;;5025499;28;20041;-73
2023/11/07 00:13:40;;;;;;;14.57;8.35;;;9.10;96.30;;;;;;5014036;28;20064;-72
2023/11/07 00:16:07;;;;;;;14.48;8.07;;;9.20;96.40;;;;;;5024377;28;20412;-73
2023/11/07 00:18:34;;;;;;;14.45;8.77;;;9.10;96.40;;;;;;5020438;28;20037;-73
2023/11/07 00:20:59;;;;;;;13.82;8.38;;;9.20;96.50;;;;;;5025574;28;20061;-72
2023/11/07 00:23:25;;;;;;;16.35;9.45;;;9.20;96.50;;;;;;5017193;28;20268;-72
2023/11/07 00:25:53;;;;;;;15.43;9.20;;;9.20;96.60;;;;;;5021240;28;20327;-73
2023/11/07 00:28:20;;;;;;;17.10;9.98;;;9.20;96.50;;;;;;5022162;28;20104;-72
2023/11/07 00:30:46;;;;;;;16.10;9.52;;;9.20;96.50;;;;;;5023847;28;20392;-72
2023/11/07 00:33:12;;;;;;;16.52;9.88;;;9.20;96.60;;;;;;5023675;28;20046;-74
2023/11/07 00:35:38;;;;;;;13.40;8.40;;;9.30;96.60;;;;;;5016497;28;20040;-72
2023/11/07 00:38:06;;;;;;;15.10;8.48;;;9.20;96.60;;;;;;5024512;28;20034;-74
2023/11/07 00:40:32;;;;;;;15.55;9.05;;;9.30;96.60;;;;;;5024649;28;20135;-72
2023/11/07 00:42:57;;;;;;;15.00;7.82;;;9.20;96.70;;;;;;5029998;28;20045;-73
2023/11/07 00:45:23;;;;;;;13.73;8.05;;;9.20;96.70;;;;;;5034699;28;20117;-73
2023/11/07 00:47:50;;;;;;;14.20;7.97;;;9.30;96.80;;;;;;5037807;28;20149;-73
2023/11/07 00:50:16;;;;;;;14.60;7.20;;;9.30;96.80;;;;;;5018217;28;20069;-75
2023/11/07 00:52:42;;;;;;;10.13;6.13;;;9.30;96.80;;;;;;5022721;28;20474;-73
2023/11/07 00:55:08;;;;;;;13.63;6.30;;;9.30;96.70;;;;;;5022498;28;20113;-73
2023/11/07 00:57:34;;;;;;;12.40;6.35;;;9.30;96.70;;;;;;5019873;28;20320;-73
2023/11/07 01:00:00;;;;;;;13.23;6.10;;;9.20;96.70;;;;;;5023789;28;20382;-73
2023/11/07 01:02:25;;;;;;;10.85;5.50;;;9.20;96.70;;;;;;5023690;28;20076;-73
2023/11/07 01:04:51;;;;;;;11.38;5.78;;;9.20;96.80;;;;;;5023621;28;20076;-74
2023/11/07 01:07:17;;;;;;;12.75;6.22;;;9.30;96.70;;;;;;5022181;28;20050;-74
2023/11/07 01:09:43;;;;;;;11.48;5.85;;;9.20;96.70;;;;;;5020236;28;20730;-76
2023/11/07 01:12:08;;;;;;;13.48;6.55;;;9.20;96.70;;;;;;5020514;28;20099;-73
2023/11/07 01:14:35;;;;;;;14.60;7.03;;;9.30;96.80;;;;;;5025293;28;20029;-73
2023/11/07 01:17:00;;;;;;;12.02;6.55;;;9.30;96.80;;;;;;5022525;28;20037;-73
2023/11/07 01:19:29;;;;;;;11.25;6.22;;;9.30;96.70;;;;;;5016393;28;20073;-73
2023/11/07 01:21:55;;;;;;;15.48;7.18;;;9.30;96.70;;;;;;5017348;28;20058;-73
2023/11/07 01:24:20;;;;;;;14.18;6.88;;;9.30;96.70;;;;;;5016715;28;20022;-74
2023/11/07 01:26:46;;;;;;;11.50;6.13;;;9.30;96.70;;;;;;5019704;28;20063;-74
2023/11/07 01:29:12;;;;;;;13.35;6.95;;;9.30;96.70;;;;;;5031301;28;20481;-73
2023/11/07 01:31:39;;;;;;;12.57;5.97;;;9.30;96.60;;;;;;5015992;28;20553;-73
2023/11/07 01:34:04;;;;;;;13.98;6.93;;;9.20;96.60;;;;;;5024691;28;20021;-72
2023/11/07 01:36:30;;;;;;;14.05;6.80;;;9.10;96.60;;;;;;5019855;28;20587;-75
2023/11/07 01:38:56;;;;;;;13.93;7.55;;;9.10;96.70;;;;;;5021805;28;20022;-74
2023/11/07 01:41:21;;;;;;;11.25;6.97;;;9.10;96.80;;;;;;5017477;28;20137;-73
2023/11/07 01:43:47;;;;;;;15.80;6.90;;;9.10;96.90;;;;;;5021304;28;20073;-73
2023/11/07 01:46:14;;;;;;;11.32;6.82;;;9.10;97.00;;;;;;5014542;28;21086;-73
2023/11/07 01:48:40;;;;;;;10.70;5.85;;;9.10;97.00;;;;;;5016493;28;20124;-73
2023/11/07 01:51:06;;;;;;;11.65;6.38;;;9.10;96.90;;;;;;5011860;28;20034;-73
2023/11/07 01:53:32;;;;;;;12.05;6.63;;;9.10;97.00;;;;;;5017562;28;20025;-73
2023/11/07 01:55:58;;;;;;;12.50;6.28;;;9.10;97.00;;;;;;5014809;28;20447;-74
2023/11/07 01:58:24;;;;;;;12.77;6.40;;;9.10;97.00;;;;;;5022306;28;20041;-73
2023/11/07 02:00:53;;;;;;;11.35;6.30;;;9.10;97.10;;;;;;5018499;28;20465;-73
2023/11/07 02:03:26;;;;;;;13.20;6.93;;;9.20;97.00;;;;;;5020210;28;20080;-73
2023/11/07 02:05:51;;;;;;;12.73;6.18;;;9.20;97.00;;;;;;5020941;28;20029;-73
2023/11/07 02:08:21;;;;;;;13.98;6.97;;;9.20;97.00;;;;;;5017992;28;20044;-74
2023/11/07 02:10:46;;;;;;;11.75;7.25;;;9.20;97.00;;;;;;5023353;28;20132;-75
2023/11/07 02:13:12;;;;;;;14.13;7.97;;;9.10;96.90;;;;;;5034306;28;20132;-74
2023/11/07 02:15:38;;;;;;;14.57;7.50;;;9.10;97.00;;;;;;5037277;28;20113;-73
2023/11/07 02:18:04;;;;;;;13.98;8.40;;;9.10;97.00;;;;;;5019494;28;20041;-73
2023/11/07 02:20:31;;;;;;;15.45;8.52;;;9.10;97.00;;;;;;5019938;28;20119;-72
2023/11/07 02:23:07;;;;;;;16.95;8.65;;;9.10;97.10;;;;;;5015543;28;20096;-74
2023/11/07 02:25:33;;;;;;;16.27;8.75;;;9.10;97.10;;;;;;5018013;28;20046;-73
2023/11/07 02:27:59;;;;;;;17.25;8.80;;;9.00;97.10;;;;;;5020587;28;20058;-73
2023/11/07 02:30:25;;;;;;;23.58;8.85;;;9.00;97.20;;;;;;5021088;28;20099;-73
2023/11/07 02:32:51;;;;;;;13.73;8.05;;;9.00;97.20;;;;;;5019494;28;20030;-73
2023/11/07 02:35:16;;;;;;;18.30;8.48;;;9.00;97.30;;;;;;5021680;28;20059;-74
2023/11/07 02:37:45;;;;;;;16.33;8.38;;;9.00;97.30;;;;;;5022651;28;20533;-72
2023/11/07 02:40:11;;;;;;;13.38;8.45;;;8.90;97.30;;;;;;5022090;28;20164;-72
2023/11/07 02:42:37;;;;;;;14.13;7.97;;;8.90;97.30;;;;;;5014574;28;20132;-73
2023/11/07 02:45:03;;;;;;;14.02;7.47;;;8.90;97.30;;;;;;5016158;28;20398;-74
2023/11/07 02:47:29;;;;;;;19.95;8.10;;;8.90;97.30;;;;;;5016187;28;20037;-73
2023/11/07 02:49:55;;;;;;;14.52;7.95;;;8.90;97.30;;;;;;5019964;28;20037;-76
2023/11/07 02:52:21;;;;;;;14.85;7.75;;;8.90;97.40;;;;;;5021551;28;20124;-74
2023/11/07 02:54:47;;;;;;;15.15;7.80;;;9.00;97.40;;;;;;5021392;28;20352;-74
2023/11/07 02:57:13;;;;;;;13.38;7.93;;;8.90;97.30;;;;;;5034603;28;20540;-73
2023/11/07 02:59:39;;;;;;;14.05;7.47;;;9.00;97.40;;;;;;5021953;28;20014;-71
2023/11/07 03:02:06;;;;;;;14.05;7.95;;;9.00;97.40;;;;;;5021592;28;20521;-73
2023/11/07 03:04:32;;;;;;;13.35;6.70;;;9.00;97.40;;;;;;5018486;28;20020;-72
2023/11/07 03:06:57;;;;;;;14.23;7.55;;;9.00;97.40;;;;;;5025687;28;20049;-72
2023/11/07 03:09:23;;;;;;;14.20;7.00;;;9.00;97.40;;;;;;5021519;28;20034;-73
2023/11/07 03:11:49;;;;;;;12.85;6.90;;;9.00;97.40;;;;;;5024448;28;20044;-72
2023/11/07 03:14:14;;;;;;;13.80;6.65;;;9.00;97.40;;;;;;5024201;28;20083;-72
2023/11/07 03:16:41;;;;;;;13.75;6.50;;;9.00;97.40;;;;;;5014051;28;20042;-71
2023/11/07 03:19:10;;;;;;;14.70;6.35;;;8.90;97.40;;;;;;5021666;28;20080;-74
2023/11/07 03:21:35;;;;;;;12.95;6.45;;;9.00;97.40;;;;;;5017582;28;20038;-73
2023/11/07 03:24:03;;;;;;;13.23;6.97;;;8.90;97.40;;;;;;5017661;28;20869;-73
2023/11/07 03:26:29;;;;;;;16.80;7.30;;;8.90;97.60;;;;;;5019252;28;20040;-72
2023/11/07 03:28:55;;;;;;;14.93;6.47;;;8.90;97.50;;;;;;5022567;28;20038;-72
2023/11/07 03:31:20;;;;;;;14.35;7.15;;;9.00;97.60;;;;;;5023180;28;20037;-73
2023/11/07 03:33:46;;;;;;;14.52;6.03;;;9.00;97.60;;;;;;5026270;28;20029;-72
2023/11/07 03:36:15;;;;;;;9.10;5.95;;;9.10;97.60;;;;;;5026459;28;20044;-74
2023/11/07 03:38:42;;;;;;;11.00;5.85;;;9.10;97.60;;;;;;5024077;28;20572;-74
2023/11/07 03:41:09;;;;;;;10.10;5.93;;;9.10;97.50;;;;;;5026085;28;20042;-74
2023/11/07 03:43:34;;;;;;;10.93;6.13;;;9.10;97.50;;;;;;5020363;28;20038;-73
2023/11/07 03:46:00;;;;;;;13.02;6.47;;;9.10;97.50;;;;;;5021824;28;20061;-71
2023/11/07 03:48:26;;;;;;;13.48;6.82;;;9.00;97.50;;;;;;5021913;28;20038;-72
2023/11/07 03:50:53;;;;;;;11.43;6.80;;;9.00;97.50;;;;;;5021252;28;20112;-72
2023/11/07 03:53:19;;;;;;;13.75;7.22;;;9.00;97.50;;;;;;5017725;28;20060;-71
2023/11/07 03:55:46;;;;;;;12.48;6.50;;;9.00;97.50;;;;;;5021655;28;20041;-73
2023/11/07 03:58:11;;;;;;;12.50;6.65;;;8.90;97.50;;;;;;5017984;28;20064;-72
2023/11/07 04:00:37;;;;;;;15.05;7.10;;;8.90;97.60;;;;;;5022184;28;20546;-72
2023/11/07 04:03:03;;;;;;;11.63;6.35;;;8.90;97.60;;;;;;5016200;28;20030;-72
2023/11/07 04:05:29;;;;;;;12.07;6.40;;;8.90;97.60;;;;;;5020003;28;20361;-72
2023/11/07 04:07:57;;;;;;;12.30;6.57;;;8.90;97.50;;;;;;5023193;28;20038;-73
2023/11/07 04:10:23;;;;;;;11.93;6.95;;;8.80;97.50;;;;;;5019800;28;20041;-72
2023/11/07 04:12:50;;;;;;;14.65;7.00;;;8.70;97.50;;;;;;5022417;28;20034;-72
2023/11/07 04:15:16;;;;;;;16.98;6.50;;;8.80;97.50;;;;;;5020280;28;20128;-72
2023/11/07 04:17:42;;;;;;;14.80;6.93;;;8.80;97.50;;;;;;5013459;28;20083;-72
2023/11/07 04:20:09;;;;;;;12.63;6.45;;;8.70;97.50;;;;;;5035506;28;20037;-73
2023/11/07 04:22:36;;;;;;;15.02;6.93;;;8.70;97.50;;;;;;5025668;28;20412;-73
2023/11/07 04:25:03;;;;;;;12.70;6.78;;;8.70;97.50;;;;;;5035485;28;20025;-73
2023/11/07 04:27:29;;;;;;;13.50;7.10;;;8.70;97.50;;;;;;5037241;28;20467;-73
2023/11/07 04:29:55;;;;;;;12.57;7.40;;;8.70;97.60;;;;;;5038625;28;20085;-73
2023/11/07 04:32:21;;;;;;;12.48;6.50;;;8.70;97.60;;;;;;5035143;28;20056;-74
2023/11/07 04:34:47;;;;;;;14.98;7.22;;;8.60;97.60;;;;;;5024272;28;21152;-74
2023/11/07 04:37:14;;;;;;;19.20;7.30;;;8.60;97.70;;;;;;5023517;28;20034;-73
2023/11/07 04:39:39;;;;;;;13.95;7.38;;;8.60;97.60;;;;;;5029107;28;20036;-73
2023/11/07 04:42:07;;;;;;;12.02;6.65;;;8.60;97.60;;;;;;5026961;28;20041;-73
2023/11/07 04:44:33;;;;;;;10.30;6.68;;;8.60;97.70;;;;;;5020987;28;20013;-72
2023/11/07 04:47:02;;;;;;;12.73;6.35;;;8.60;97.60;;;;;;5030916;28;20497;-73
2023/11/07 04:49:29;;;;;;;11.75;6.53;;;8.50;97.60;;;;;;5030059;28;20397;-73
2023/11/07 04:51:56;;;;;;;11.90;6.32;;;8.50;97.60;;;;;;5031266;28;20060;-73
2023/11/07 04:54:23;;;;;;;11.18;6.25;;;8.50;97.50;;;;;;5023959;28;20148;-72
2023/11/07 04:56:49;;;;;;;13.55;6.30;;;8.50;97.60;;;;;;5026303;28;20029;-73
2023/11/07 04:59:14;;;;;;;14.93;7.07;;;8.50;97.60;;;;;;5031630;28;20033;-74
2023/11/07 05:01:40;;;;;;;12.90;7.65;;;8.50;97.60;;;;;;5023073;28;20437;-72
2023/11/07 05:04:07;;;;;;;12.25;6.85;;;8.40;97.60;;;;;;5024128;28;20092;-73
2023/11/07 05:06:34;;;;;;;12.75;7.20;;;8.50;97.60;;;;;;5021267;28;20124;-75
2023/11/07 05:09:00;;;;;;;14.77;6.72;;;8.50;97.60;;;;;;5019927;28;20026;-74
2023/11/07 05:11:27;;;;;;;16.15;7.25;;;8.40;97.50;;;;;;5013760;28;20109;-73
2023/11/07 05:13:53;;;;;;;18.92;7.93;;;8.50;97.60;;;;;;5022510;28;20048;-73
2023/11/07 05:16:19;;;;;;;14.00;7.00;;;8.40;97.60;;;;;;5019719;28;20451;-72
2023/11/07 05:18:45;;;;;;;15.07;7.35;;;8.40;97.60;;;;;;5018175;28;20025;-73
2023/11/07 05:21:10;;;;;;;13.45;6.90;;;8.40;97.60;;;;;;5026213;28;20064;-74
2023/11/07 05:23:36;;;;;;;14.43;6.65;;;8.40;97.60;;;;;;5039780;28;20046;-73
2023/11/07 05:26:03;;;;;;;12.73;6.78;;;8.40;97.60;;;;;;5040345;28;20052;-73
2023/11/07 05:28:28;;;;;;;16.98;7.80;;;8.40;97.60;;;;;;5021815;28;20064;-73
2023/11/07 05:30:54;;;;;;;14.75;6.88;;;8.40;97.70;;;;;;5019687;28;20041;-72
2023/11/07 05:33:19;;;;;;;13.70;6.45;;;8.40;97.70;;;;;;5010806;28;20030;-72
2023/11/07 05:35:45;;;;;;;14.15;6.75;;;8.40;97.80;;;;;;5016649;28;20042;-73
2023/11/07 05:38:11;;;;;;;13.50;6.85;;;8.40;97.70;;;;;;5016026;28;20108;-75
2023/11/07 05:40:37;;;;;;;13.98;6.35;;;8.40;97.80;;;;;;5018117;28;20041;-73
2023/11/07 05:43:02;;;;;;;14.68;6.78;;;8.40;97.80;;;;;;5015383;28;20033;-73
2023/11/07 05:45:28;;;;;;;14.40;7.57;;;8.40;97.70;;;;;;5013915;28;20801;-73
2023/11/07 05:47:55;;;;;;;13.68;6.00;;;8.50;97.70;;;;;;5013600;28;20112;-73
2023/11/07 05:50:25;;;;;;;13.10;7.15;;;8.40;97.70;;;;;;5015637;28;20087;-73
2023/11/07 05:52:51;;;;;;;15.07;6.80;;;8.40;97.60;;;;;;5019423;28;20038;-75
2023/11/07 05:55:17;;;;;;;10.10;6.10;;;8.40;97.60;;;;;;5016254;28;20053;-73
2023/11/07 05:57:43;;;;;;;12.82;6.95;;;8.40;97.60;;;;;;5019302;28;20091;-74
2023/11/07 06:00:10;;;;;;;13.80;6.75;;;8.30;97.60;;;;;;5018932;28;20037;-73
2023/11/07 06:02:37;;;;;;;13.13;6.63;;;8.30;97.60;;;;;;5017761;28;20040;-74
2023/11/07 06:05:03;;;;;;;11.80;6.10;;;8.30;97.60;;;;;;5017684;28;20032;-73
2023/11/07 06:07:29;;;;;;;12.73;6.28;;;8.20;97.60;;;;;;5016610;28;20026;-75
2023/11/07 06:09:55;;;;;;;13.73;6.70;;;8.20;97.50;;;;;;5031759;28;20037;-73
2023/11/07 06:12:20;;;;;;;13.38;5.80;;;8.20;97.60;;;;;;5014927;28;20029;-73
2023/11/07 06:14:46;;;;;;;11.73;6.45;;;8.10;97.50;;;;;;5018221;28;20037;-74
2023/11/07 06:17:12;;;;;;;12.52;6.15;;;8.10;97.60;;;;;;5028173;28;20038;-75
2023/11/07 06:19:38;;;;;;;13.18;6.35;;;8.10;97.60;;;;;;5016686;28;20057;-72
2023/11/07 06:22:04;;;;;;;18.58;6.53;;;8.10;97.60;;;;;;5010364;28;20498;-73
2023/11/07 06:24:29;;;;;;;13.90;5.93;;;8.00;97.60;;;;;;5013233;28;20040;-73
2023/11/07 06:26:55;;;;;;;14.48;6.47;;;8.00;97.60;;;;;;5018851;28;20025;-73
2023/11/07 06:29:20;;;;;;;14.02;6.18;;;8.00;97.70;;;;;;5012143;28;20026;-73
2023/11/07 06:31:46;;;;;;;16.80;6.97;;;7.90;97.60;;;;;;5018763;28;20042;-74
2023/11/07 06:34:14;;;;;;;12.57;5.50;;;7.90;97.70;;;;;;5011209;28;20025;-71
2023/11/07 06:36:40;;;;;;;12.65;6.38;;;7.90;97.70;;;;;;5021074;28;20641;-71
2023/11/07 06:39:06;;;;;;;10.38;6.03;;;7.90;97.70;;;;;;5023432;28;20024;-71
2023/11/07 06:41:32;;;;;;;14.00;6.13;;;7.90;97.80;;;;;;5012811;28;20042;-71
2023/11/07 06:43:57;;;;;;;9.48;5.47;;;7.90;97.70;;;;;;5026061;28;20609;-71
2023/11/07 06:46:23;;;;;;;11.90;6.10;;;7.80;97.70;;;;;;5020578;28;20474;-73
2023/11/07 06:48:49;;;;;;;9.45;5.30;;;7.80;97.60;;;;;;5020319;28;20063;-70
2023/11/07 06:51:19;;;;;;;10.10;4.97;;;7.80;97.70;;;;;;5020163;28;20072;-71
2023/11/07 06:53:44;;;;;;;8.73;5.25;;;7.80;97.70;;;;;;5023162;28;20017;-70
2023/11/07 06:56:12;;;;;;;9.57;4.93;;;7.80;97.70;;;;;;5023444;28;20482;-70
2023/11/07 06:58:38;;;;;;;10.95;5.35;;;7.70;97.70;;;;;;5022636;28;20022;-70
2023/11/07 07:01:04;;;;;;;10.02;4.90;;;7.80;97.70;;;;;;5020738;28;20401;-70
2023/11/07 07:03:30;;;;;;;9.40;4.40;;;7.80;97.70;;;;;;5021465;28;20084;-71
2023/11/07 07:05:55;;;;;;;8.30;4.40;;;7.80;97.60;;;;;;5019471;28;20049;-71
2023/11/07 07:08:24;;;;;;;12.15;5.00;;;7.70;97.60;;;;;;5017724;28;20026;-73
2023/11/07 07:10:51;;;;;;;10.85;4.47;;;7.80;97.60;;;;;;5020703;28;20496;-72
2023/11/07 07:13:18;;;;;;;10.52;4.68;;;7.80;97.60;;;;;;5022661;28;20037;-72
2023/11/07 07:15:43;;;;;;;11.57;4.60;;;7.80;97.50;;;;;;5023320;28;20367;-71
2023/11/07 07:18:10;;;;;;;8.98;4.57;;;7.80;97.50;;;;;;5016607;28;20037;-72
2023/11/07 07:20:36;;;;;;;8.93;4.15;;;7.90;97.50;;;;;;5022285;28;20437;-72
2023/11/07 07:23:05;;;;;;;10.20;4.50;;;7.90;97.40;;;;;;5024633;28;20398;-71
2023/11/07 07:25:32;;;;;;;8.63;4.43;;;7.90;97.40;;;;;;5018852;28;20025;-73
2023/11/07 07:28:02;;;;;;;7.43;3.85;;;7.90;97.20;;;;;;5020572;28;20513;-71
2023/11/07 07:30:28;;;;;;;28.13;11.48;;;8.00;97.20;;;;;;5020055;28;20486;-71
2023/11/07 07:32:54;;;;;;;10.90;5.53;;;8.10;97.10;;;;;;5024906;28;20041;-71
2023/11/07 07:35:21;;;;;;;13.48;4.40;;;8.10;96.90;;;;;;5018447;28;20080;-73
2023/11/07 07:37:54;;;;;;;7.47;3.55;;;8.10;97.00;;;;;;5022769;28;20510;-76
2023/11/07 07:40:29;;;;;;;8.77;3.53;;;8.10;96.80;;;;;;5024063;28;20045;-73
2023/11/07 07:43:10;;;;;;;8.38;3.17;;;8.20;96.70;;;;;;5024182;28;20073;-74
2023/11/07 07:45:43;;;;;;;8.77;3.72;;;8.20;96.70;;;;;;5020485;28;20095;-74
2023/11/07 07:48:10;;;;;;;7.97;3.83;;;8.10;96.60;;;;;;5022306;28;20418;-75
2023/11/07 07:50:41;;;;;;;6.10;2.92;;;8.10;96.70;;;;;;5024330;28;20201;-77
2023/11/07 07:53:08;;;;;;;8.75;3.20;;;8.20;96.70;;;;;;5023591;28;20048;-77
2023/11/07 07:55:34;;;;;;;8.98;3.33;;;8.10;96.70;;;;;;5019001;28;20095;-77
2023/11/07 07:58:00;;;;;;;8.13;3.60;;;8.20;96.70;;;;;;5022023;28;20037;-76
2023/11/07 08:00:30;;;;;;;11.70;4.10;;;8.20;96.70;;;;;;5020195;28;20171;-76
2023/11/07 08:02:57;;;;;;;7.80;4.32;;;8.20;96.70;;;;;;5021440;28;20474;-76
2023/11/07 08:05:23;;;;;;;11.07;5.43;;;8.20;96.80;;;;;;5020056;28;20042;-77
2023/11/07 08:07:50;;;;;;;8.73;4.60;;;8.30;96.80;;;;;;5021404;28;20036;-76
2023/11/07 08:10:17;;;;;;;9.77;4.60;;;8.20;96.80;;;;;;5025253;28;20037;-77
2023/11/07 08:12:47;;;;;;;8.80;4.35;;;8.30;96.80;;;;;;5024598;28;20334;-77
2023/11/07 08:15:13;;;;;;;14.20;4.70;;;8.40;96.90;;;;;;5023935;28;20046;-76
2023/11/07 08:17:39;;;;;;;8.40;4.60;;;8.40;97.00;;;;;;5025064;28;20044;-74
2023/11/07 08:20:14;;;;;;;8.77;5.13;;;8.50;96.90;;;;;;5022575;28;20038;-74
2023/11/07 08:22:40;;;;;;;;;;;8.60;96.80;;;;;;5022538;28;20409;-74
2023/11/07 08:25:06;;;;;;;10.98;5.13;;;8.70;96.70;;;;;;5020214;28;19928;-74
2023/11/07 08:27:33;;;;;;;13.27;5.20;;;8.80;96.60;;;;;;5021984;28;20049;-74
2023/11/07 08:29:59;;;;;;;12.90;5.63;;;8.80;96.30;;;;;;5023719;28;20493;-74
2023/11/07 08:32:29;;;;;;;12.20;5.53;;;8.90;96.40;;;;;;5026968;28;20041;-74
2023/11/07 08:34:57;;;;;;;14.98;6.20;;;9.00;96.40;;;;;;5019858;28;20051;-74
2023/11/07 08:37:23;;;;;;;12.25;5.40;;;9.20;96.20;;;;;;5022651;28;20466;-74
2023/11/07 08:39:49;;;;;;;9.95;5.45;;;9.20;95.50;;;;;;5023535;28;20037;-74
2023/11/07 08:42:15;;;;;;;9.18;4.80;;;9.30;95.30;;;;;;5023158;28;20123;-74
2023/11/07 08:44:40;;;;;;;10.30;5.35;;;9.20;95.00;;;;;;5019096;28;20441;-74
2023/11/07 08:47:06;;;;;;;9.60;5.45;;;9.10;95.10;;;;;;5021461;28;20117;-76
2023/11/07 08:49:32;;;;;;;12.27;5.45;;;9.30;95.40;;;;;;5025105;28;20494;-75
2023/11/07 08:51:58;;;;;;;10.90;5.93;;;9.50;95.40;;;;;;5017617;28;20041;-74
2023/11/07 08:54:23;;;;;;;10.18;5.43;;;9.60;94.90;;;;;;5025456;28;20112;-74
2023/11/07 08:56:49;;;;;;;11.18;5.53;;;9.80;94.60;;;;;;5022907;28;20463;-74
2023/11/07 08:59:18;;;;;;;12.13;5.05;;;9.90;94.10;;;;;;5026546;28;20242;-74
2023/11/07 09:01:46;;;;;;;9.38;5.47;;;9.90;93.80;;;;;;5019435;28;20052;-76
2023/11/07 09:04:13;;;;;;;9.98;5.53;;;9.90;93.80;;;;;;5021162;28;20029;-76
2023/11/07 09:06:39;;;;;;;10.75;5.15;;;9.90;93.80;;;;;;5028586;28;20397;-74
2023/11/07 09:09:14;;;;;;;10.35;7.65;;;10.10;94.00;;;;;;5022149;28;20144;-76
2023/11/07 09:11:43;;;;;;;;;;;10.30;93.80;;;;;;5021683;28;20080;-75
2023/11/07 09:14:09;;;;;;;12.07;7.80;;;10.30;93.00;;;;;;5017841;28;20008;-76
2023/11/07 09:16:35;;;;;;;13.93;6.25;;;10.40;92.90;;;;;;5023012;28;20116;-74
2023/11/07 09:19:01;;;;;;;10.30;6.78;;;10.50;92.40;;;;;;5019849;28;20124;-80
2023/11/07 09:21:26;;;;;;;9.20;5.25;;;10.60;92.10;;;;;;5021408;28;20702;-75
2023/11/07 09:23:53;;;;;;;8.32;4.38;;;10.80;91.90;;;;;;5015888;28;20068;-76
2023/11/07 09:26:19;;;;;;;9.85;4.53;;;10.90;91.10;;;;;;5020609;28;20033;-76
2023/11/07 09:28:45;;;;;;;8.63;3.55;;;11.00;91.10;;;;;;5017823;28;20038;-77
2023/11/07 09:31:12;;;;;;;10.40;3.63;;;11.10;90.60;;;;;;5026880;28;20051;-74
2023/11/07 09:33:37;;;;;;;7.07;3.25;;;11.20;90.30;;;;;;5023444;28;20109;-82
2023/11/07 09:36:03;;;;;;;6.40;2.72;;;11.40;90.20;;;;;;5020048;28;20144;-82
2023/11/07 09:38:29;;;;;;;6.65;2.72;;;11.50;89.70;;;;;;5015731;28;20090;-82
2023/11/07 09:40:56;;;;;;;6.07;2.15;;;11.50;89.30;;;;;;5018958;28;20510;-82
2023/11/07 09:43:26;;;;;;;6.90;3.50;;;11.60;89.10;;;;;;5018340;28;20111;-81
2023/11/07 09:45:57;;;;;;;4.45;2.20;;;11.60;88.70;;;;;;5036285;28;20068;-82
2023/11/07 09:48:25;;;;;;;6.20;2.78;;;11.60;88.50;;;;;;5020204;28;20029;-81
2023/11/07 09:50:54;;;;;;;5.82;2.40;;;11.60;88.70;;;;;;5018906;28;20125;-83
2023/11/07 09:53:20;;;;;;;6.25;1.83;;;11.70;88.10;;;;;;5036161;28;20426;-82
2023/11/07 09:55:49;;;;;;;7.85;2.55;;;11.70;87.90;;;;;;5019596;28;20059;-82
2023/11/07 09:58:19;;;;;;;7.45;2.40;;;11.70;87.70;;;;;;5020236;28;20080;-84
2023/11/07 10:00:45;;;;;;;5.13;2.20;;;11.80;87.60;;;;;;5021684;28;20097;-82
2023/11/07 10:03:11;;;;;;;5.72;2.05;;;11.80;87.30;;;;;;5041509;28;20153;-79
2023/11/07 10:05:39;;;;;;;5.15;1.92;;;11.70;87.00;;;;;;5037642;28;20060;-80
2023/11/07 10:08:06;;;;;;;5.38;1.90;;;11.70;86.80;;;;;;5024556;28;20454;-80
2023/11/07 10:10:33;;;;;;;6.90;2.67;;;11.80;87.20;;;;;;5016334;28;20142;-80
2023/11/07 10:13:12;;;;;;;11.93;5.18;;;11.80;86.80;;;;;;5022015;28;20025;-79
2023/11/07 10:15:38;;;;;;;6.97;3.20;;;11.80;87.10;;;;;;5019585;28;20084;-80
2023/11/07 10:18:06;;;;;;;4.78;2.13;;;11.60;87.20;;;;;;5017992;28;20120;-80
2023/11/07 10:20:33;;;;;;;4.50;1.80;;;11.50;87.10;;;;;;5013648;28;20065;-80
2023/11/07 10:23:00;;;;;;;5.30;2.13;;;11.40;87.70;;;;;;5018647;28;20037;-79
2023/11/07 10:25:31;;;;;;;7.88;2.13;;;11.50;88.20;;;;;;5015375;28;20452;-80
2023/11/07 10:28:02;;;;;;;6.63;2.22;;;11.40;87.70;;;;;;5020546;28;20052;-80
2023/11/07 10:30:48;;;;;;;5.28;2.10;;;11.30;87.70;;;;;;5020618;28;20046;-80
2023/11/07 10:33:27;;;;;;;5.10;1.90;;;11.30;87.60;;;;;;5015367;28;20054;-80
2023/11/07 10:35:59;;;;;;;3.70;2.08;;;11.30;87.90;;;;;;5016252;28;20029;-80
2023/11/07 10:38:26;;;;;;;6.15;2.50;;;11.20;88.30;;;;;;5011533;28;20099;-80
2023/11/07 10:40:52;;;;;;;7.63;2.33;;;11.30;88.50;;;;;;5021106;28;20033;-75
2023/11/07 10:43:35;;;;;;;6.75;2.75;;;11.30;88.30;;;;;;5022168;28;20065;-76
2023/11/07 10:46:06;;;;;;;4.78;1.95;;;11.40;88.50;;;;;;5015495;28;20106;-77
2023/11/07 10:48:38;;;;;;;5.80;2.40;;;11.50;87.80;;;;;;5014525;28;20033;-74
2023/11/07 10:51:05;;;;;;;5.20;1.77;;;11.60;87.60;;;;;;5018045;28;20120;-75
2023/11/07 10:53:34;;;;;;;5.50;2.00;;;11.70;86.90;;;;;;5019152;28;20073;-75
2023/11/07 10:56:03;;;;;;;6.55;2.20;;;11.90;86.90;;;;;;5016328;28;20030;-76
2023/11/07 10:58:33;;;;;;;5.30;2.03;;;12.20;86.60;;;;;;5011219;28;20443;-76
2023/11/07 11:01:06;;;;;;;4.55;1.50;;;12.40;85.60;;;;;;5018597;28;20030;-76
2023/11/07 11:03:34;;;;;;;4.13;1.30;;;12.60;84.10;;;;;;5017115;28;20494;-77
2023/11/07 11:06:03;;;;;;;10.38;4.70;;;12.60;83.40;;;;;;5020357;28;20044;-76
2023/11/07 11:08:30;;;;;;;7.45;2.30;;;12.90;83.50;;;;;;5021418;28;20036;-76
2023/11/07 11:10:57;;;;;;;7.75;3.05;;;13.00;82.10;;;;;;5016827;28;20029;-77
2023/11/07 11:13:26;;;;;;;4.40;1.80;;;13.10;82.30;;;;;;5020788;28;20040;-79
2023/11/07 11:15:56;;;;;;;7.60;3.78;;;13.10;81.60;;;;;;5020516;28;20387;-77
2023/11/07 11:18:31;;;;;;;9.77;4.57;;;13.00;81.40;;;;;;5022614;28;20081;-80
2023/11/07 11:21:16;;;;;;;6.50;2.83;;;12.80;81.30;;;;;;5018415;28;20533;-79
2023/11/07 11:24:15;;;;;;;5.03;2.00;;;12.70;82.40;;;;;;5020255;28;20038;-77
2023/11/07 11:26:47;;;;;;;5.13;2.00;;;12.80;82.30;;;;;;5015110;28;20152;-77
2023/11/07 11:29:28;;;;;;;5.78;2.15;;;12.90;82.10;;;;;;5019663;28;20690;-78
2023/11/07 11:31:56;;;;;;;5.47;2.47;;;13.10;82.00;;;;;;5019916;28;20037;-76
2023/11/07 11:34:25;;;;;;;2.63;1.45;;;13.10;81.30;;;;;;5017914;28;20018;-77
2023/11/07 11:36:59;;;;;;;4.95;1.45;;;13.10;81.40;;;;;;5020925;28;20049;-77
2023/11/07 11:39:31;;;;;;;2.50;1.20;;;13.10;81.70;;;;;;5031678;28;20460;-77
2023/11/07 11:41:58;;;;;;;5.00;1.70;;;13.30;81.00;;;;;;5017878;28;20242;-80
2023/11/07 11:44:27;;;;;;;3.50;1.42;;;13.20;80.50;;;;;;5017915;28;20032;-77
2023/11/07 11:46:56;;;;;;;4.97;1.60;;;13.00;80.80;;;;;;5016998;28;20041;-78
2023/11/07 11:49:23;;;;;;;5.03;1.80;;;12.80;81.20;;;;;;5021621;28;20084;-77
2023/11/07 11:51:54;;;;;;;3.63;1.52;;;12.60;81.40;;;;;;5020560;28;20041;-78
2023/11/07 11:54:32;;;;;;;4.78;1.58;;;12.60;82.00;;;;;;5021596;28;20025;-77
2023/11/07 11:56:58;;;;;;;4.07;1.77;;;12.40;82.20;;;;;;5015225;28;20033;-79
2023/11/07 11:59:29;;;;;;;3.15;1.83;;;12.40;82.00;;;;;;5018646;28;20029;-78
2023/11/07 12:01:55;;;;;;;2.72;1.63;;;12.40;82.40;;;;;;5018365;28;20044;-77
2023/11/07 12:04:27;;;;;;;3.65;1.70;;;12.30;82.70;;;;;;5021292;28;20458;-78
2023/11/07 12:07:14;;;;;;;3.63;1.42;;;12.30;82.80;;;;;;5018551;28;20046;-78
2023/11/07 12:09:47;;;;;;;3.53;1.42;;;12.30;82.80;;;;;;5027703;28;20098;-77
2023/11/07 12:12:16;;;;;;;5.85;1.70;;;12.40;82.70;;;;;;5014419;28;21779;-75
2023/11/07 12:14:54;;;;;;;4.47;1.50;;;12.40;82.60;;;;;;5016146;28;20029;-76
2023/11/07 12:17:21;;;;;;;3.42;1.50;;;12.40;82.70;;;;;;5010882;28;20029;-75
2023/11/07 12:19:48;;;;;;;2.55;1.40;;;12.40;82.40;;;;;;5016525;28;20323;-80
2023/11/07 12:22:15;;;;;;;6.38;1.83;;;12.50;82.10;;;;;;5018620;28;20123;-76
2023/11/07 12:24:41;;;;;;;4.60;1.70;;;12.60;82.00;;;;;;5020728;28;20048;-75
2023/11/07 12:27:07;;;;;;;5.20;1.60;;;12.50;82.10;;;;;;5010326;28;20271;-75
2023/11/07 12:29:36;;;;;;;5.70;1.50;;;12.30;82.70;;;;;;5017057;28;20026;-76
2023/11/07 12:32:03;;;;;;;5.70;1.48;;;12.30;82.60;;;;;;5033996;28;20593;-75
2023/11/07 12:34:32;;;;;;;3.38;1.65;;;12.20;82.70;;;;;;5016088;28;20010;-76
2023/11/07 12:37:13;;;;;;;5.68;1.75;;;12.10;83.20;;;;;;5018784;28;20038;-76
2023/11/07 12:39:41;;;;;;;4.20;1.48;;;12.00;83.00;;;;;;5025228;28;20490;-76
2023/11/07 12:42:10;;;;;;;3.03;1.40;;;12.00;83.30;;;;;;5019581;28;20038;-75
2023/11/07 12:44:36;;;;;;;6.07;1.83;;;12.10;83.50;;;;;;5023349;28;20405;-74
2023/11/07 12:47:05;;;;;;;4.60;1.73;;;12.10;83.30;;;;;;5019092;28;20286;-75
2023/11/07 12:49:43;;;;;;;4.28;1.60;;;12.10;83.30;;;;;;5022980;28;20057;-76